Time;durP1;ratioP1;P1;durP2;ratioP2;P2;SDS_P1;SDS_P2;PMS_P1;PMS_P2;Temp;Humidity;BMP_temperature;BMP_pressure;BME280_temperature;BME280_humidity;BME280_pressure;Samples;Min_cycle;Max_cycle;Signal;HPM_P1;HPM_P2
2021/04/14 00:00:06;;;;;;;4.10;1.67;;;3.10;99.90;;;;;;5093655;28;20203;-58
2021/04/14 00:02:33;;;;;;;2.43;1.90;;;3.20;99.90;;;;;;5094153;28;20290;-57
2021/04/14 00:05:00;;;;;;;3.10;2.00;;;3.10;99.90;;;;;;5094185;28;20208;-59
2021/04/14 00:07:27;;;;;;;6.47;2.43;;;3.10;99.90;;;;;;5094241;28;20204;-58
2021/04/14 00:09:54;;;;;;;3.00;2.17;;;2.90;99.90;;;;;;5094197;28;20200;-59
2021/04/14 00:12:21;;;;;;;2.47;2.10;;;2.90;99.90;;;;;;5093618;28;20284;-59
2021/04/14 00:14:48;;;;;;;3.93;1.90;;;2.80;99.90;;;;;;5093947;28;20352;-59
2021/04/14 00:17:15;;;;;;;4.83;2.17;;;2.70;99.90;;;;;;5093602;28;20235;-57
2021/04/14 00:19:43;;;;;;;4.43;1.90;;;2.60;99.90;;;;;;5092101;28;20236;-58
2021/04/14 00:22:10;;;;;;;3.40;2.10;;;2.70;99.90;;;;;;5092127;28;20213;-57
2021/04/14 00:24:37;;;;;;;2.70;1.93;;;2.70;99.90;;;;;;5093867;28;20196;-59
2021/04/14 00:27:04;;;;;;;3.67;1.83;;;2.70;99.90;;;;;;5093455;28;20319;-59
2021/04/14 00:29:31;;;;;;;4.57;1.70;;;2.70;99.90;;;;;;5093796;28;20238;-59
2021/04/14 00:31:57;;;;;;;4.00;1.97;;;2.70;99.90;;;;;;5093297;28;20210;-59
2021/04/14 00:34:25;;;;;;;4.37;2.00;;;2.70;99.90;;;;;;5093343;28;20292;-58
2021/04/14 00:36:52;;;;;;;3.30;2.10;;;2.60;99.90;;;;;;5092993;28;20200;-58
2021/04/14 00:39:23;;;;;;;2.47;1.90;;;2.50;99.90;;;;;;5093413;28;20222;-59
2021/04/14 00:41:53;;;;;;;3.13;2.00;;;2.50;99.90;;;;;;5093477;28;20187;-57
2021/04/14 00:44:21;;;;;;;3.93;1.90;;;2.40;99.90;;;;;;5093393;28;20294;-57
2021/04/14 00:46:49;;;;;;;4.70;2.07;;;2.40;99.90;;;;;;5093362;28;20313;-58
2021/04/14 00:49:16;;;;;;;3.40;2.10;;;2.30;99.90;;;;;;5092993;28;20732;-58
2021/04/14 00:51:44;;;;;;;5.50;2.33;;;2.30;99.90;;;;;;5092895;28;20301;-58
2021/04/14 00:54:12;;;;;;;4.60;2.47;;;2.30;99.90;;;;;;5092985;28;20217;-59
2021/04/14 00:56:39;;;;;;;3.50;2.20;;;2.30;99.90;;;;;;5092953;28;20734;-57
2021/04/14 00:59:06;;;;;;;4.53;2.43;;;2.30;99.90;;;;;;5093106;28;20211;-58
2021/04/14 01:01:33;;;;;;;3.13;2.10;;;2.30;99.90;;;;;;5093232;28;20296;-58
2021/04/14 01:04:00;;;;;;;3.17;2.53;;;2.20;99.90;;;;;;5092077;28;20212;-61
2021/04/14 01:06:29;;;;;;;3.60;2.40;;;2.20;99.90;;;;;;5092665;28;20216;-59
2021/04/14 01:08:58;;;;;;;4.47;2.43;;;2.20;99.90;;;;;;5093140;28;20290;-61
2021/04/14 01:11:27;;;;;;;3.63;2.53;;;2.20;99.90;;;;;;5092953;28;20202;-60
2021/04/14 01:13:54;;;;;;;6.27;2.73;;;2.10;99.90;;;;;;5093186;28;20294;-60
2021/04/14 01:16:21;;;;;;;4.50;2.60;;;2.20;99.90;;;;;;5092899;28;20227;-60
2021/04/14 01:18:48;;;;;;;6.27;2.67;;;2.20;99.90;;;;;;5092351;28;20233;-58
2021/04/14 01:21:20;;;;;;;3.20;2.60;;;2.10;99.90;;;;;;5092505;28;20200;-59
2021/04/14 01:23:47;;;;;;;4.67;2.93;;;2.10;99.90;;;;;;5092939;28;20187;-57
2021/04/14 01:26:14;;;;;;;4.83;2.87;;;2.10;99.90;;;;;;5092383;28;20226;-58
2021/04/14 01:28:47;;;;;;;3.17;2.50;;;2.00;99.90;;;;;;5092913;28;20286;-55
2021/04/14 01:31:17;;;;;;;5.27;2.70;;;1.90;99.90;;;;;;5092854;28;20198;-59
2021/04/14 01:33:44;;;;;;;3.97;2.67;;;1.80;99.90;;;;;;5092753;28;20216;-58
2021/04/14 01:36:11;;;;;;;4.87;2.80;;;1.80;99.90;;;;;;5092047;28;20295;-59
2021/04/14 01:38:39;;;;;;;3.03;2.60;;;1.80;99.90;;;;;;5092788;28;20294;-58
2021/04/14 01:41:08;;;;;;;4.60;3.27;;;1.80;99.90;;;;;;5092506;28;20253;-58
2021/04/14 01:43:36;;;;;;;6.10;2.97;;;1.80;99.90;;;;;;5092602;28;20196;-59
2021/04/14 01:46:03;;;;;;;7.10;3.20;;;1.70;99.90;;;;;;5092500;28;20315;-60
2021/04/14 01:48:30;;;;;;;6.30;2.93;;;1.80;99.90;;;;;;5092455;28;20199;-59
2021/04/14 01:50:57;;;;;;;4.40;3.03;;;1.80;99.90;;;;;;5092268;28;20202;-59
2021/04/14 01:53:24;;;;;;;4.80;3.37;;;1.70;99.90;;;;;;5092454;28;20202;-58
2021/04/14 01:55:52;;;;;;;6.33;3.90;;;1.80;99.90;;;;;;5092821;28;20290;-58
2021/04/14 01:58:20;;;;;;;5.63;3.67;;;1.80;99.90;;;;;;5092559;28;20207;-58
2021/04/14 02:00:52;;;;;;;5.87;3.43;;;1.90;99.90;;;;;;5092572;28;20562;-57
2021/04/14 02:03:20;;;;;;;4.63;3.40;;;2.00;99.90;;;;;;5092305;28;20279;-59
2021/04/14 02:05:47;;;;;;;4.30;3.57;;;1.90;99.90;;;;;;5091649;28;20220;-57
2021/04/14 02:08:14;;;;;;;5.70;3.73;;;1.90;99.90;;;;;;5092195;28;20716;-57
2021/04/14 02:10:41;;;;;;;5.40;3.33;;;1.90;99.90;;;;;;5092388;28;20303;-59
2021/04/14 02:13:13;;;;;;;9.23;4.40;;;2.10;99.90;;;;;;5092440;28;20279;-60
2021/04/14 02:15:40;;;;;;;8.50;4.40;;;2.00;99.90;;;;;;5093820;28;20629;-60
2021/04/14 02:18:07;;;;;;;6.57;3.57;;;2.10;99.90;;;;;;5095704;28;20581;-59
2021/04/14 02:20:35;;;;;;;5.73;3.67;;;2.10;99.90;;;;;;5095730;28;20210;-58
2021/04/14 02:23:11;;;;;;;6.53;4.00;;;2.10;99.90;;;;;;5096175;28;20199;-60
2021/04/14 02:25:38;;;;;;;6.37;4.03;;;2.00;99.90;;;;;;5095943;28;20224;-60
2021/04/14 02:28:05;;;;;;;4.60;3.70;;;1.90;99.90;;;;;;5095702;28;20684;-59
2021/04/14 02:30:33;;;;;;;5.90;3.70;;;1.90;99.90;;;;;;5095919;28;20241;-59
2021/04/14 02:33:00;;;;;;;5.33;3.93;;;1.80;99.90;;;;;;5095823;28;20200;-59
2021/04/14 02:35:27;;;;;;;6.50;3.83;;;1.70;99.90;;;;;;5095477;28;20238;-59
2021/04/14 02:37:54;;;;;;;4.53;3.60;;;1.70;99.90;;;;;;5095858;28;20241;-58
2021/04/14 02:40:21;;;;;;;8.07;3.60;;;1.70;99.90;;;;;;5095456;28;20207;-57
2021/04/14 02:42:48;;;;;;;6.87;4.00;;;1.70;99.90;;;;;;5095954;28;20287;-57
2021/04/14 02:45:19;;;;;;;6.47;3.97;;;1.80;99.90;;;;;;5095405;28;20217;-59
2021/04/14 02:47:47;;;;;;;4.60;3.50;;;1.90;99.90;;;;;;5095393;28;20631;-57
2021/04/14 02:50:13;;;;;;;5.83;3.80;;;1.90;99.90;;;;;;5095927;28;20307;-55
2021/04/14 02:52:40;;;;;;;6.80;3.80;;;1.80;99.90;;;;;;5096870;28;20289;-57
2021/04/14 02:55:09;;;;;;;8.27;4.20;;;1.80;99.90;;;;;;5095640;28;20318;-59
2021/04/14 02:57:36;;;;;;;8.03;4.77;;;1.70;99.90;;;;;;5095652;28;20275;-59
2021/04/14 03:00:05;;;;;;;6.87;3.97;;;1.80;99.90;;;;;;5095594;28;20210;-57
2021/04/14 03:02:32;;;;;;;7.90;3.77;;;1.70;99.90;;;;;;5095327;28;20588;-58
2021/04/14 03:05:00;;;;;;;9.43;4.17;;;1.70;99.90;;;;;;5095096;28;20251;-57
2021/04/14 03:07:27;;;;;;;5.87;3.87;;;1.60;99.90;;;;;;5095571;28;20215;-60
2021/04/14 03:09:53;;;;;;;6.97;4.10;;;1.50;99.90;;;;;;5095402;28;20220;-59
2021/04/14 03:12:20;;;;;;;8.20;4.10;;;1.50;99.90;;;;;;5095482;28;20196;-58
2021/04/14 03:14:47;;;;;;;4.77;3.73;;;1.50;99.90;;;;;;5094845;28;20210;-58
2021/04/14 03:17:14;;;;;;;7.77;4.30;;;1.60;99.90;;;;;;5095137;28;20196;-56
2021/04/14 03:19:41;;;;;;;7.93;4.30;;;1.50;99.90;;;;;;5094832;28;20204;-58
2021/04/14 03:22:09;;;;;;;5.97;4.20;;;1.50;99.90;;;;;;5094974;28;20287;-58
2021/04/14 03:24:36;;;;;;;7.27;4.43;;;1.70;99.90;;;;;;5094779;28;20679;-59
2021/04/14 03:27:07;;;;;;;6.70;4.20;;;1.70;99.90;;;;;;5094071;28;20703;-56
2021/04/14 03:29:34;;;;;;;8.83;4.73;;;1.70;99.90;;;;;;5095009;28;20228;-59
2021/04/14 03:32:01;;;;;;;6.03;4.20;;;1.80;99.90;;;;;;5094915;28;20202;-59
2021/04/14 03:34:28;;;;;;;6.27;4.07;;;1.70;99.90;;;;;;5094659;28;20254;-59
2021/04/14 03:36:54;;;;;;;7.37;4.07;;;1.50;99.90;;;;;;5094853;28;20193;-58
2021/04/14 03:39:22;;;;;;;8.23;4.30;;;1.50;99.90;;;;;;5094444;28;20207;-58
2021/04/14 03:41:49;;;;;;;8.87;4.53;;;1.50;99.90;;;;;;5094364;28;20235;-58
2021/04/14 03:44:16;;;;;;;5.33;3.70;;;1.70;99.90;;;;;;5094680;28;20287;-57
2021/04/14 03:46:43;;;;;;;6.50;4.07;;;1.80;99.90;;;;;;5094261;28;20570;-60
2021/04/14 03:49:11;;;;;;;7.63;4.03;;;1.70;99.90;;;;;;5094180;28;20232;-58
2021/04/14 03:51:38;;;;;;;5.40;3.93;;;1.70;99.90;;;;;;5094381;28;20200;-56
2021/04/14 03:54:06;;;;;;;6.60;3.97;;;1.70;99.90;;;;;;5094504;28;20306;-58
2021/04/14 03:56:33;;;;;;;10.57;4.23;;;1.60;99.90;;;;;;5094508;28;20199;-58
2021/04/14 03:59:00;;;;;;;7.27;4.80;;;1.60;99.90;;;;;;5094544;28;20301;-58
2021/04/14 04:01:30;;;;;;;6.10;3.70;;;1.50;99.90;;;;;;5094292;28;20238;-57
2021/04/14 04:03:59;;;;;;;7.43;4.00;;;1.50;99.90;;;;;;5093857;28;20402;-56
2021/04/14 04:06:26;;;;;;;6.70;4.03;;;1.50;99.90;;;;;;5094130;28;20303;-56
2021/04/14 04:08:53;;;;;;;6.60;3.73;;;1.50;99.90;;;;;;5094113;28;20295;-58
2021/04/14 04:11:22;;;;;;;7.53;4.00;;;1.50;99.90;;;;;;5093985;28;20739;-58
2021/04/14 04:13:51;;;;;;;10.23;3.80;;;1.40;99.90;;;;;;5094224;28;20287;-59
2021/04/14 04:16:18;;;;;;;8.43;4.17;;;1.50;99.90;;;;;;5094561;28;20202;-58
2021/04/14 04:18:45;;;;;;;9.17;4.10;;;1.40;99.90;;;;;;5093553;28;20584;-57
2021/04/14 04:21:12;;;;;;;4.33;3.87;;;1.50;99.90;;;;;;5094027;28;20256;-58
2021/04/14 04:23:43;;;;;;;7.57;4.00;;;1.50;99.90;;;;;;5094323;28;20196;-58
2021/04/14 04:26:10;;;;;;;8.77;4.33;;;1.50;99.90;;;;;;5093633;28;20307;-58
2021/04/14 04:28:37;;;;;;;7.67;4.43;;;1.50;99.90;;;;;;5094348;28;20191;-58
2021/04/14 04:31:05;;;;;;;7.63;4.10;;;1.50;99.90;;;;;;5093658;28;20534;-60
2021/04/14 04:33:32;;;;;;;9.33;4.27;;;1.40;99.90;;;;;;5093627;28;20203;-57
2021/04/14 04:35:59;;;;;;;7.23;3.83;;;1.40;99.90;;;;;;5093606;28;20192;-58
2021/04/14 04:38:26;;;;;;;7.40;4.50;;;1.40;99.90;;;;;;5093337;28;20614;-58
2021/04/14 04:40:53;;;;;;;9.00;3.93;;;1.50;99.90;;;;;;5093117;28;20210;-58
2021/04/14 04:43:21;;;;;;;7.17;3.97;;;1.40;99.90;;;;;;5093683;28;20211;-59
2021/04/14 04:45:48;;;;;;;6.67;4.10;;;1.50;99.90;;;;;;5093589;28;20291;-59
2021/04/14 04:48:15;;;;;;;6.90;4.10;;;1.50;99.90;;;;;;5093483;28;20216;-58
2021/04/14 04:50:42;;;;;;;7.37;4.20;;;1.50;99.90;;;;;;5093328;28;20197;-59
2021/04/14 04:53:12;;;;;;;7.77;4.13;;;1.40;99.90;;;;;;5093129;28;20204;-58
2021/04/14 04:55:42;;;;;;;7.40;4.13;;;1.40;99.90;;;;;;5090638;28;20231;-58
2021/04/14 04:58:09;;;;;;;8.63;4.00;;;1.50;99.90;;;;;;5093210;28;20224;-57
2021/04/14 05:00:36;;;;;;;7.17;4.07;;;1.70;99.90;;;;;;5093253;28;20287;-59
2021/04/14 05:03:04;;;;;;;7.93;4.20;;;1.70;99.90;;;;;;5092965;28;20314;-58
2021/04/14 05:05:38;;;;;;;8.03;4.10;;;1.70;99.90;;;;;;5093024;28;20204;-58
2021/04/14 05:08:06;;;;;;;9.70;4.63;;;1.80;99.90;;;;;;5092980;28;20184;-57
2021/04/14 05:10:33;;;;;;;10.87;5.63;;;1.80;99.90;;;;;;5092600;28;20400;-58
2021/04/14 05:13:00;;;;;;;8.23;4.67;;;1.80;99.90;;;;;;5093185;28;20302;-58
2021/04/14 05:15:30;;;;;;;9.90;4.60;;;1.80;99.90;;;;;;5093178;28;20348;-57
2021/04/14 05:17:57;;;;;;;10.17;4.67;;;1.80;99.90;;;;;;5092620;28;20689;-59
2021/04/14 05:20:24;;;;;;;9.30;4.30;;;1.90;99.90;;;;;;5093017;28;20318;-57
2021/04/14 05:22:51;;;;;;;7.97;4.77;;;2.10;99.90;;;;;;5092884;28;20208;-58
2021/04/14 05:25:21;;;;;;;14.37;5.60;;;2.20;99.90;;;;;;5092476;28;20295;-57
2021/04/14 05:27:50;;;;;;;7.83;5.73;;;2.30;99.90;;;;;;5092731;28;20231;-57
2021/04/14 05:30:18;;;;;;;9.93;5.07;;;2.40;99.90;;;;;;5092638;28;20196;-58
2021/04/14 05:32:45;;;;;;;9.17;4.43;;;2.50;99.90;;;;;;5092737;28;20283;-59
2021/04/14 05:35:13;;;;;;;8.63;5.13;;;2.70;99.90;;;;;;5092609;28;20634;-57
2021/04/14 05:37:40;;;;;;;10.60;5.23;;;3.00;99.90;;;;;;5092775;28;20203;-59
2021/04/14 05:40:09;;;;;;;11.60;5.60;;;3.20;99.90;;;;;;5092256;28;20204;-58
2021/04/14 05:42:40;;;;;;;10.27;5.17;;;3.40;99.90;;;;;;5092847;28;20206;-59
2021/04/14 05:45:09;;;;;;;7.83;4.80;;;3.60;99.90;;;;;;5092385;28;20658;-58
2021/04/14 05:47:36;;;;;;;11.57;4.67;;;3.80;99.90;;;;;;5092539;28;20223;-58
2021/04/14 05:50:05;;;;;;;8.57;5.10;;;3.90;99.90;;;;;;5092459;28;20213;-60
2021/04/14 05:52:32;;;;;;;10.80;4.87;;;4.10;99.90;;;;;;5096539;28;20269;-58
2021/04/14 05:54:59;;;;;;;8.93;4.73;;;4.20;99.90;;;;;;5096010;28;20293;-58
2021/04/14 05:57:27;;;;;;;10.70;5.00;;;4.30;99.90;;;;;;5096147;28;20196;-61
2021/04/14 05:59:54;;;;;;;11.40;4.47;;;4.30;99.90;;;;;;5096317;28;20352;-58
2021/04/14 06:02:20;;;;;;;7.10;4.23;;;4.40;99.90;;;;;;5096371;28;20213;-58
2021/04/14 06:04:47;;;;;;;7.27;4.13;;;4.60;99.90;;;;;;5096003;28;20222;-58
2021/04/14 06:07:14;;;;;;;9.50;4.57;;;4.80;99.90;;;;;;5096179;28;20250;-59
2021/04/14 06:09:42;;;;;;;5.63;3.60;;;5.20;99.90;;;;;;5095610;28;20677;-59
2021/04/14 06:12:10;;;;;;;7.40;4.00;;;5.10;99.90;;;;;;5096259;28;20201;-59
2021/04/14 06:14:37;;;;;;;5.90;3.53;;;5.10;99.90;;;;;;5095917;28;20291;-57
2021/04/14 06:17:04;;;;;;;7.77;3.83;;;5.10;99.90;;;;;;5096213;28;20267;-58
2021/04/14 06:19:31;;;;;;;7.20;3.77;;;5.10;99.90;;;;;;5095111;28;20203;-59
2021/04/14 06:21:58;;;;;;;11.13;4.30;;;5.10;99.90;;;;;;5095954;28;20244;-59
2021/04/14 06:24:25;;;;;;;7.70;3.47;;;5.10;99.90;;;;;;5095376;28;20242;-61
2021/04/14 06:26:54;;;;;;;8.40;3.77;;;5.10;99.90;;;;;;5095592;28;20320;-58
2021/04/14 06:29:21;;;;;;;6.13;3.60;;;5.20;99.90;;;;;;5095719;28;20251;-59
2021/04/14 06:31:49;;;;;;;10.77;4.07;;;5.40;99.90;;;;;;5095830;28;20297;-58
2021/04/14 06:34:19;;;;;;;8.60;4.23;;;5.60;99.90;;;;;;5095797;28;20203;-60
2021/04/14 06:36:48;;;;;;;7.07;3.37;;;5.70;99.90;;;;;;5095114;28;20192;-59
2021/04/14 06:39:16;;;;;;;7.20;3.10;;;5.80;99.90;;;;;;5095384;28;20933;-58
2021/04/14 06:42:05;;;;;;;8.83;3.27;;;5.80;99.90;;;;;;5095810;28;20296;-62
2021/04/14 06:45:02;;;;;;;9.20;4.30;;;5.80;99.90;;;;;;5095798;28;20607;-59
2021/04/14 06:47:38;;;;;;;8.90;3.50;;;5.80;99.90;;;;;;5095337;28;20302;-61
2021/04/14 06:50:11;;;;;;;12.30;3.73;;;5.90;99.90;;;;;;5095209;28;20295;-60
2021/04/14 06:52:47;;;;;;;7.33;3.30;;;6.10;99.90;;;;;;5095434;28;20191;-59
2021/04/14 06:55:18;;;;;;;7.53;3.10;;;6.20;99.90;;;;;;5094825;28;20283;-58
2021/04/14 06:57:54;;;;;;;7.20;3.43;;;6.30;99.90;;;;;;5095236;28;20195;-59
2021/04/14 07:00:26;;;;;;;5.13;2.90;;;6.30;99.90;;;;;;5095269;28;20226;-58
2021/04/14 07:02:59;;;;;;;8.30;3.53;;;5.90;99.90;;;;;;5095337;28;20244;-57
2021/04/14 07:05:31;;;;;;;9.40;3.40;;;5.80;99.90;;;;;;5096792;28;20188;-58
2021/04/14 07:08:01;;;;;;;8.30;3.40;;;5.60;99.90;;;;;;5095780;28;20291;-61
2021/04/14 07:10:31;;;;;;;7.50;3.57;;;5.60;99.90;;;;;;5080991;28;20212;-59
2021/04/14 07:13:02;;;;;;;8.57;3.57;;;5.80;99.90;;;;;;5091743;28;20309;-60
2021/04/14 07:15:30;;;;;;;6.50;3.50;;;6.10;99.90;;;;;;5091474;28;20282;-60
2021/04/14 07:18:14;;;;;;;9.30;3.70;;;6.30;99.90;;;;;;5091487;28;20651;-60
2021/04/14 07:20:48;;;;;;;13.87;4.10;;;6.40;99.90;;;;;;5091865;28;20184;-59
2021/04/14 07:23:36;;;;;;;10.33;3.53;;;6.40;99.90;;;;;;5091461;28;20188;-60
2021/04/14 07:26:08;;;;;;;7.80;3.17;;;6.50;99.90;;;;;;5091434;28;20192;-59
2021/04/14 07:28:58;;;;;;;5.90;3.37;;;6.40;99.90;;;;;;5051376;28;20189;-61
2021/04/14 07:31:34;;;;;;;9.87;4.17;;;6.30;99.90;;;;;;5051508;28;20233;-61
2021/04/14 07:34:17;;;;;;;10.20;3.80;;;6.30;99.90;;;;;;5050961;28;20652;-59
2021/04/14 07:36:53;;;;;;;11.37;3.93;;;6.30;99.90;;;;;;5050879;28;20211;-60
2021/04/14 07:39:28;;;;;;;7.43;3.57;;;6.30;99.90;;;;;;5050794;28;20231;-61
2021/04/14 07:42:12;;;;;;;8.37;3.83;;;6.20;99.90;;;;;;5050806;28;20659;-60
2021/04/14 07:44:47;;;;;;;9.00;3.77;;;6.10;99.90;;;;;;5050488;28;20269;-60
2021/04/14 07:47:16;;;;;;;8.73;3.73;;;6.30;99.90;;;;;;5050817;28;20271;-59
2021/04/14 07:49:44;;;;;;;11.87;3.30;;;6.60;99.90;;;;;;5050545;28;20211;-60
2021/04/14 07:52:17;;;;;;;8.17;3.40;;;6.80;99.90;;;;;;5050452;28;20251;-59
2021/04/14 07:54:47;;;;;;;11.10;3.27;;;7.00;99.90;;;;;;5050699;28;20219;-65
2021/04/14 07:57:26;;;;;;;9.57;3.10;;;6.80;99.90;;;;;;5050899;28;20231;-71
2021/04/14 07:59:53;;;;;;;9.30;3.40;;;6.80;99.90;;;;;;5050594;28;20284;-69
2021/04/14 08:02:31;;;;;;;6.90;3.53;;;6.90;99.90;;;;;;5050359;28;20232;-71
2021/04/14 08:05:21;;;;;;;7.83;3.07;;;7.30;99.90;;;;;;5050534;28;20190;-69
2021/04/14 08:07:48;;;;;;;8.87;3.00;;;7.70;99.90;;;;;;5050254;28;20253;-68
2021/04/14 08:10:18;;;;;;;8.13;3.50;;;7.80;99.90;;;;;;5050322;28;20684;-63
2021/04/14 08:12:59;;;;;;;8.47;3.47;;;7.50;99.90;;;;;;5050360;28;20204;-67
2021/04/14 08:15:31;;;;;;;8.27;3.30;;;7.10;99.90;;;;;;5050265;28;20225;-65
2021/04/14 08:18:11;;;;;;;6.97;3.23;;;6.90;99.90;;;;;;5050509;28;20618;-60
2021/04/14 08:20:41;;;;;;;7.37;3.97;;;6.90;99.90;;;;;;5050296;28;20201;-61
2021/04/14 08:23:11;;;;;;;11.53;3.70;;;6.70;99.90;;;;;;5050080;28;20241;-60
2021/04/14 08:25:44;;;;;;;7.53;2.90;;;6.80;99.90;;;;;;5050489;28;20258;-60
2021/04/14 08:28:11;;;;;;;6.50;3.60;;;6.50;99.90;;;;;;5085047;28;20316;-59
2021/04/14 08:30:38;;;;;;;6.83;3.30;;;6.20;99.90;;;;;;5090094;28;20586;-61
2021/04/14 08:33:15;;;;;;;7.23;3.33;;;6.10;99.90;;;;;;5090444;28;20238;-59
2021/04/14 08:35:52;;;;;;;9.20;3.10;;;6.30;99.90;;;;;;5090299;28;20190;-59
2021/04/14 08:38:30;;;;;;;13.33;3.10;;;6.70;99.90;;;;;;5089978;28;20186;-60
2021/04/14 08:41:00;;;;;;;8.47;2.90;;;6.80;99.90;;;;;;5090222;28;20191;-61
2021/04/14 08:43:32;;;;;;;7.57;2.67;;;6.80;99.90;;;;;;5090228;28;20200;-61
2021/04/14 08:46:10;;;;;;;7.13;3.23;;;7.00;99.90;;;;;;5090350;28;20201;-61
2021/04/14 08:48:40;;;;;;;7.77;3.13;;;7.00;99.90;;;;;;5091220;28;20698;-61
2021/04/14 08:51:11;;;;;;;7.10;3.40;;;6.90;99.90;;;;;;5090421;28;20239;-62
2021/04/14 08:53:41;;;;;;;6.97;3.63;;;6.90;99.90;;;;;;5090195;28;20623;-60
2021/04/14 08:56:08;;;;;;;9.07;3.50;;;7.10;99.90;;;;;;5090236;28;20211;-59
2021/04/14 08:58:36;;;;;;;8.77;3.93;;;7.60;99.90;;;;;;5089587;28;20254;-61
2021/04/14 09:01:04;;;;;;;7.77;3.30;;;7.70;99.90;;;;;;5089972;28;20212;-60
2021/04/14 09:03:35;;;;;;;6.07;3.23;;;7.90;99.90;;;;;;5089278;28;20204;-57
2021/04/14 09:06:02;;;;;;;7.20;3.63;;;7.70;99.90;;;;;;5089328;28;20207;-60
2021/04/14 09:08:33;;;;;;;6.77;3.50;;;7.30;99.90;;;;;;5089425;28;20277;-59
2021/04/14 09:11:01;;;;;;;7.93;4.20;;;7.00;99.90;;;;;;5089685;28;20193;-62
2021/04/14 09:13:53;;;;;;;8.00;3.60;;;6.80;99.90;;;;;;5089560;28;20203;-60
2021/04/14 09:16:34;;;;;;;6.87;3.20;;;7.00;99.90;;;;;;5089448;28;20283;-61
2021/04/14 09:19:13;;;;;;;6.47;3.43;;;7.20;99.90;;;;;;5089640;28;20279;-59
2021/04/14 09:21:45;;;;;;;7.40;3.43;;;7.70;99.90;;;;;;5087371;28;20192;-62
2021/04/14 09:24:31;;;;;;;7.10;2.73;;;7.80;99.90;;;;;;5068886;28;20208;-60
2021/04/14 09:26:59;;;;;;;7.37;3.33;;;7.50;99.90;;;;;;5068577;28;20340;-60
2021/04/14 09:29:44;;;;;;;4.87;3.60;;;6.90;99.90;;;;;;5069403;28;20195;-59
2021/04/14 09:32:14;;;;;;;9.60;3.97;;;6.40;99.90;;;;;;5068749;28;20682;-61
2021/04/14 09:34:46;;;;;;;5.63;3.50;;;6.30;99.90;;;;;;5068848;28;20313;-60
2021/04/14 09:37:32;;;;;;;7.00;4.20;;;6.40;99.90;;;;;;5068179;28;20191;-59
2021/04/14 09:40:01;;;;;;;9.33;3.40;;;6.50;99.90;;;;;;5069193;28;20220;-60
2021/04/14 09:42:32;;;;;;;4.07;1.73;;;6.80;99.90;;;;;;5068841;28;20643;-60
2021/04/14 09:45:32;;;;;;;5.20;2.17;;;6.80;99.90;;;;;;5068667;28;20364;-59
2021/04/14 09:48:12;;;;;;;5.73;2.03;;;6.80;99.90;;;;;;5068820;28;20212;-60
2021/04/14 09:50:43;;;;;;;6.60;2.50;;;6.70;99.90;;;;;;5068700;28;20193;-60
2021/04/14 09:53:36;;;;;;;5.10;2.73;;;6.50;99.90;;;;;;5069087;28;20234;-59
2021/04/14 09:56:10;;;;;;;3.97;2.60;;;6.40;99.90;;;;;;5068621;28;20184;-60
2021/04/14 09:58:45;;;;;;;5.57;3.30;;;6.50;99.90;;;;;;5069183;28;20228;-57
2021/04/14 10:01:19;;;;;;;5.47;3.00;;;6.90;99.90;;;;;;5068854;28;20224;-55
2021/04/14 10:03:48;;;;;;;6.90;3.57;;;7.40;99.90;;;;;;5069235;28;20219;-60
2021/04/14 10:06:21;;;;;;;7.87;3.50;;;7.80;99.90;;;;;;5068443;28;20243;-60
2021/04/14 10:08:55;;;;;;;4.47;2.30;;;7.90;99.90;;;;;;5069004;28;20205;-58
2021/04/14 10:11:26;;;;;;;6.50;2.50;;;7.90;99.90;;;;;;5069168;28;20189;-59
2021/04/14 10:13:55;;;;;;;4.90;2.53;;;8.20;99.90;;;;;;5068962;28;20587;-60
2021/04/14 10:16:24;;;;;;;7.37;2.60;;;8.50;99.90;;;;;;5079187;28;20234;-59
2021/04/14 10:19:01;;;;;;;5.73;2.93;;;8.70;99.90;;;;;;5089089;28;20220;-58
2021/04/14 10:21:28;;;;;;;6.90;3.03;;;8.70;99.90;;;;;;5088524;28;20207;-56
2021/04/14 10:24:01;;;;;;;5.63;3.03;;;8.50;99.90;;;;;;5089116;28;20238;-59
2021/04/14 10:26:31;;;;;;;8.80;2.50;;;8.20;99.90;;;;;;5088716;28;20224;-60
2021/04/14 10:29:01;;;;;;;4.83;2.70;;;8.20;99.90;;;;;;5088803;28;20797;-60
2021/04/14 10:31:30;;;;;;;4.07;2.60;;;8.10;99.90;;;;;;5089009;28;20291;-59
2021/04/14 10:34:07;;;;;;;4.80;2.50;;;8.10;99.90;;;;;;5089066;28;20184;-59
2021/04/14 10:36:38;;;;;;;4.53;2.60;;;8.00;99.90;;;;;;5088298;28;20684;-59
2021/04/14 10:39:10;;;;;;;6.13;2.40;;;7.60;99.90;;;;;;5092350;28;20595;-59
2021/04/14 10:41:39;;;;;;;3.90;2.60;;;7.60;99.90;;;;;;5092485;28;20191;-69
2021/04/14 10:44:17;;;;;;;4.77;2.43;;;7.60;99.90;;;;;;5092505;28;20563;-67
2021/04/14 10:46:45;;;;;;;6.73;2.50;;;7.80;99.90;;;;;;5092151;28;20309;-68
2021/04/14 10:49:22;;;;;;;4.17;2.50;;;8.30;99.90;;;;;;5092279;28;20200;-63
2021/04/14 10:51:52;;;;;;;7.23;2.50;;;8.40;99.90;;;;;;5091971;28;20234;-63
2021/04/14 10:54:23;;;;;;;7.07;2.83;;;8.60;99.90;;;;;;5092118;28;20326;-63
2021/04/14 10:56:59;;;;;;;4.73;2.20;;;8.60;99.90;;;;;;5097109;28;20274;-63
2021/04/14 10:59:26;;;;;;;6.37;2.23;;;8.40;99.90;;;;;;5092243;28;20216;-70
2021/04/14 11:01:53;;;;;;;4.87;2.40;;;8.20;99.90;;;;;;5092327;28;20381;-69
2021/04/14 11:04:29;;;;;;;4.37;2.20;;;7.80;99.90;;;;;;5092785;28;20293;-69
2021/04/14 11:07:01;;;;;;;2.73;1.70;;;8.00;99.90;;;;;;5091801;28;22150;-67
2021/04/14 11:09:31;;;;;;;5.63;1.90;;;8.50;99.90;;;;;;5093781;28;20278;-67
2021/04/14 11:12:04;;;;;;;7.37;2.10;;;8.90;99.90;;;;;;5095638;28;20271;-67
2021/04/14 11:14:32;;;;;;;4.70;2.30;;;8.90;99.90;;;;;;5093640;28;20287;-66
2021/04/14 11:17:00;;;;;;;4.67;2.20;;;8.60;99.90;;;;;;5091062;28;20291;-67
2021/04/14 11:19:27;;;;;;;3.93;2.30;;;8.30;99.90;;;;;;5090901;28;20288;-66
2021/04/14 11:22:03;;;;;;;6.07;2.60;;;8.00;99.90;;;;;;5091492;28;20702;-66
2021/04/14 11:24:30;;;;;;;5.20;2.47;;;7.90;99.90;;;;;;5091656;28;20675;-66
2021/04/14 11:27:00;;;;;;;4.40;1.83;;;8.20;99.90;;;;;;5091373;28;20319;-66
2021/04/14 11:29:31;;;;;;;5.37;2.47;;;8.50;99.90;;;;;;5091598;28;20298;-65
2021/04/14 11:32:03;;;;;;;4.37;1.83;;;8.80;99.90;;;;;;5091441;28;20276;-63
2021/04/14 11:34:33;;;;;;;6.93;2.27;;;9.10;99.90;;;;;;5091684;28;20195;-66
2021/04/14 11:37:03;;;;;;;5.43;2.13;;;9.40;99.90;;;;;;5091247;28;20204;-66
2021/04/14 11:39:35;;;;;;;3.13;1.93;;;9.50;99.90;;;;;;5090991;28;20667;-66
2021/04/14 11:42:05;;;;;;;3.00;1.60;;;9.40;99.90;;;;;;5091280;28;20200;-66
2021/04/14 11:44:44;;;;;;;3.53;1.87;;;9.20;99.90;;;;;;5091300;28;20194;-66
2021/04/14 11:47:24;;;;;;;2.77;1.80;;;8.90;99.90;;;;;;5091111;28;20243;-66
2021/04/14 11:49:57;;;;;;;3.87;1.90;;;9.00;99.90;;;;;;5090619;28;20232;-66
2021/04/14 11:52:31;;;;;;;4.17;2.00;;;9.40;99.90;;;;;;5090736;28;20300;-67
2021/04/14 11:55:10;;;;;;;3.87;2.00;;;9.50;99.90;;;;;;5090687;28;20184;-67
2021/04/14 11:57:41;;;;;;;4.40;1.50;;;9.10;99.90;;;;;;5090753;28;20187;-67
2021/04/14 12:00:29;;;;;;;3.40;1.67;;;8.90;99.90;;;;;;5091135;28;20190;-60
2021/04/14 12:03:00;;;;;;;2.67;1.70;;;8.90;99.90;;;;;;5090952;28;20264;-58
2021/04/14 12:05:27;;;;;;;3.47;1.77;;;9.00;99.90;;;;;;5090896;28;20184;-67
2021/04/14 12:07:54;;;;;;;3.00;1.83;;;8.90;99.90;;;;;;5090795;28;20226;-67
2021/04/14 12:10:21;;;;;;;4.40;1.70;;;8.80;99.90;;;;;;5090792;28;20234;-67
2021/04/14 12:12:48;;;;;;;5.33;1.50;;;8.70;99.90;;;;;;5090752;28;20282;-66
2021/04/14 12:15:17;;;;;;;2.80;1.50;;;8.80;99.90;;;;;;5090682;28;20204;-67
2021/04/14 12:17:45;;;;;;;3.63;1.77;;;8.90;99.90;;;;;;5090191;28;20196;-66
2021/04/14 12:20:12;;;;;;;1.90;1.60;;;9.20;99.90;;;;;;5090638;28;20204;-63
2021/04/14 12:22:39;;;;;;;3.37;1.50;;;9.50;99.90;;;;;;5089960;28;20239;-67
2021/04/14 12:25:08;;;;;;;5.40;1.57;;;9.40;99.90;;;;;;5090643;28;20210;-68
2021/04/14 12:27:35;;;;;;;3.13;1.80;;;9.40;99.90;;;;;;5090037;28;20328;-66
2021/04/14 12:30:04;;;;;;;3.63;1.70;;;9.40;99.90;;;;;;5090238;28;20668;-65
2021/04/14 12:32:31;;;;;;;3.37;1.73;;;9.40;99.90;;;;;;5090204;28;20690;-64
2021/04/14 12:34:59;;;;;;;4.17;1.73;;;9.20;99.90;;;;;;5090334;28;20197;-62
2021/04/14 12:37:26;;;;;;;3.43;1.47;;;8.70;99.90;;;;;;5090450;28;20220;-66
2021/04/14 12:39:53;;;;;;;3.30;1.33;;;8.60;99.90;;;;;;5089822;28;20276;-65
2021/04/14 12:42:23;;;;;;;2.80;1.53;;;8.70;99.90;;;;;;5090275;28;20212;-66
2021/04/14 12:44:50;;;;;;;3.87;1.43;;;9.10;99.90;;;;;;5089657;28;20660;-66
2021/04/14 12:47:21;;;;;;;3.83;1.17;;;9.60;99.90;;;;;;5089809;28;20222;-66
2021/04/14 12:49:48;;;;;;;4.37;1.70;;;10.00;99.90;;;;;;5089810;28;20208;-66
2021/04/14 12:52:22;;;;;;;4.73;1.80;;;10.10;99.90;;;;;;5089901;28;20293;-67
2021/04/14 12:54:50;;;;;;;2.60;1.40;;;9.80;99.90;;;;;;5090047;28;20645;-67
2021/04/14 12:57:22;;;;;;;4.60;1.57;;;9.50;99.90;;;;;;5089738;28;20196;-66
2021/04/14 12:59:54;;;;;;;2.47;1.40;;;9.30;99.90;;;;;;5089304;28;20211;-67
2021/04/14 13:02:24;;;;;;;3.33;1.40;;;9.20;99.90;;;;;;5089929;28;20211;-59
2021/04/14 13:04:56;;;;;;;3.13;1.10;;;9.30;99.90;;;;;;5090852;28;20284;-66
2021/04/14 13:07:28;;;;;;;2.57;1.43;;;9.40;99.90;;;;;;5089669;28;20298;-66
2021/04/14 13:09:56;;;;;;;3.20;1.20;;;9.50;99.90;;;;;;5089812;28;20568;-66